Aviation Digital Data Service (ADDS)

Output produced by METARs form (1259 UTC 20 September 2017)
found at http://aviationweather.gov/adds/metars/
 
KHYA 201120Z 2012/2112 04017G28KT 1/2SM FG VCSH OVC002 
     FM201400 03018G29KT 1SM -SHRA BR OVC005 
     FM201800 02020G36KT 2SM +SHRA BR OVC005 
     FM202100 02021G39KT 3SM SHRA BR VCTS OVC008CB WS020/04050KT 
     FM210000 02019G40KT 3SM -SHRA BR OVC008 WS020/04050KT 
     FM210300 01020G41KT 3SM BR VCSH OVC008 WS020/04050KT